sensor_id;sensor_type;location;lat;lon;timestamp;P1;P2;P0
55591;PMS5003;41454;53.396;-1.510;2023-09-18T00:01:16;52;46;
55591;PMS5003;41454;53.396;-1.510;2023-09-18T00:03:43;47;42;
55591;PMS5003;41454;53.396;-1.510;2023-09-18T00:06:13;57;53;
55591;PMS5003;41454;53.396;-1.510;2023-09-18T00:08:41;52;47;
55591;PMS5003;41454;53.396;-1.510;2023-09-18T00:11:08;49;47;
55591;PMS5003;41454;53.396;-1.510;2023-09-18T00:13:36;51;49;
55591;PMS5003;41454;53.396;-1.510;2023-09-18T00:16:03;46;41;
55591;PMS5003;41454;53.396;-1.510;2023-09-18T00:18:30;50;45;
55591;PMS5003;41454;53.396;-1.510;2023-09-18T00:20:57;48;45;
55591;PMS5003;41454;53.396;-1.510;2023-09-18T00:23:24;63;53;
55591;PMS5003;41454;53.396;-1.510;2023-09-18T00:25:51;50;46;
55591;PMS5003;41454;53.396;-1.510;2023-09-18T00:28:18;54;50;
55591;PMS5003;41454;53.396;-1.510;2023-09-18T00:30:47;50;46;
55591;PMS5003;41454;53.396;-1.510;2023-09-18T00:33:15;50;47;
55591;PMS5003;41454;53.396;-1.510;2023-09-18T00:35:44;47;41;
55591;PMS5003;41454;53.396;-1.510;2023-09-18T00:38:13;48;46;
55591;PMS5003;41454;53.396;-1.510;2023-09-18T00:40:41;49;44;
55591;PMS5003;41454;53.396;-1.510;2023-09-18T00:43:08;51;49;
55591;PMS5003;41454;53.396;-1.510;2023-09-18T00:45:35;52;49;
55591;PMS5003;41454;53.396;-1.510;2023-09-18T00:48:07;54;50;
55591;PMS5003;41454;53.396;-1.510;2023-09-18T00:50:35;47;43;
55591;PMS5003;41454;53.396;-1.510;2023-09-18T00:53:03;52;50;
55591;PMS5003;41454;53.396;-1.510;2023-09-18T00:55:33;57;51;
55591;PMS5003;41454;53.396;-1.510;2023-09-18T00:58:04;49;45;
55591;PMS5003;41454;53.396;-1.510;2023-09-18T01:00:32;53;49;
55591;PMS5003;41454;53.396;-1.510;2023-09-18T01:03:01;60;56;
55591;PMS5003;41454;53.396;-1.510;2023-09-18T01:05:28;64;57;
55591;PMS5003;41454;53.396;-1.510;2023-09-18T01:07:57;51;50;
55591;PMS5003;41454;53.396;-1.510;2023-09-18T01:10:24;59;51;
55591;PMS5003;41454;53.396;-1.510;2023-09-18T01:12:59;53;49;
55591;PMS5003;41454;53.396;-1.510;2023-09-18T01:15:35;57;49;
55591;PMS5003;41454;53.396;-1.510;2023-09-18T01:18:06;63;55;
55591;PMS5003;41454;53.396;-1.510;2023-09-18T01:20:34;54;51;
55591;PMS5003;41454;53.396;-1.510;2023-09-18T01:23:03;62;54;
55591;PMS5003;41454;53.396;-1.510;2023-09-18T01:25:30;63;52;
55591;PMS5003;41454;53.396;-1.510;2023-09-18T01:27:57;59;54;
55591;PMS5003;41454;53.396;-1.510;2023-09-18T01:30:25;58;55;
55591;PMS5003;41454;53.396;-1.510;2023-09-18T01:32:52;61;55;
55591;PMS5003;41454;53.396;-1.510;2023-09-18T01:35:21;63;53;
55591;PMS5003;41454;53.396;-1.510;2023-09-18T01:37:48;53;52;
55591;PMS5003;41454;53.396;-1.510;2023-09-18T01:40:17;58;52;
55591;PMS5003;41454;53.396;-1.510;2023-09-18T01:42:45;57;49;
55591;PMS5003;41454;53.396;-1.510;2023-09-18T01:45:12;62;56;
55591;PMS5003;41454;53.396;-1.510;2023-09-18T01:47:40;56;51;
55591;PMS5003;41454;53.396;-1.510;2023-09-18T01:50:08;55;51;
55591;PMS5003;41454;53.396;-1.510;2023-09-18T01:52:35;57;48;
55591;PMS5003;41454;53.396;-1.510;2023-09-18T01:55:02;54;47;
55591;PMS5003;41454;53.396;-1.510;2023-09-18T01:57:30;52;49;
55591;PMS5003;41454;53.396;-1.510;2023-09-18T01:59:57;50;45;
55591;PMS5003;41454;53.396;-1.510;2023-09-18T02:02:25;61;52;
55591;PMS5003;41454;53.396;-1.510;2023-09-18T02:04:52;53;47;
55591;PMS5003;41454;53.396;-1.510;2023-09-18T02:07:19;49;46;
55591;PMS5003;41454;53.396;-1.510;2023-09-18T02:09:47;51;47;
55591;PMS5003;41454;53.396;-1.510;2023-09-18T02:12:14;46;43;
55591;PMS5003;41454;53.396;-1.510;2023-09-18T02:14:42;53;46;
55591;PMS5003;41454;53.396;-1.510;2023-09-18T02:17:10;46;44;
55591;PMS5003;41454;53.396;-1.510;2023-09-18T02:19:37;50;41;
55591;PMS5003;41454;53.396;-1.510;2023-09-18T02:22:05;50;43;
55591;PMS5003;41454;53.396;-1.510;2023-09-18T02:24:32;45;42;
55591;PMS5003;41454;53.396;-1.510;2023-09-18T02:27:00;44;41;
55591;PMS5003;41454;53.396;-1.510;2023-09-18T02:29:30;47;43;
55591;PMS5003;41454;53.396;-1.510;2023-09-18T02:31:57;44;40;
55591;PMS5003;41454;53.396;-1.510;2023-09-18T02:34:24;38;36;
55591;PMS5003;41454;53.396;-1.510;2023-09-18T02:36:51;51;43;
55591;PMS5003;41454;53.396;-1.510;2023-09-18T02:39:18;46;44;
55591;PMS5003;41454;53.396;-1.510;2023-09-18T02:41:45;45;42;
55591;PMS5003;41454;53.396;-1.510;2023-09-18T02:44:12;51;46;
55591;PMS5003;41454;53.396;-1.510;2023-09-18T02:46:39;42;38;
55591;PMS5003;41454;53.396;-1.510;2023-09-18T02:49:08;41;37;
55591;PMS5003;41454;53.396;-1.510;2023-09-18T02:51:35;44;37;
55591;PMS5003;41454;53.396;-1.510;2023-09-18T02:54:02;41;37;
55591;PMS5003;41454;53.396;-1.510;2023-09-18T02:56:30;41;37;
55591;PMS5003;41454;53.396;-1.510;2023-09-18T02:58:57;39;37;
55591;PMS5003;41454;53.396;-1.510;2023-09-18T03:01:24;37;35;
55591;PMS5003;41454;53.396;-1.510;2023-09-18T03:03:51;46;42;
55591;PMS5003;41454;53.396;-1.510;2023-09-18T03:06:18;46;39;
55591;PMS5003;41454;53.396;-1.510;2023-09-18T03:08:45;52;48;
55591;PMS5003;41454;53.396;-1.510;2023-09-18T03:11:13;53;48;
55591;PMS5003;41454;53.396;-1.510;2023-09-18T03:13:43;50;43;
55591;PMS5003;41454;53.396;-1.510;2023-09-18T03:16:10;49;44;
55591;PMS5003;41454;53.396;-1.510;2023-09-18T03:18:37;48;44;
55591;PMS5003;41454;53.396;-1.510;2023-09-18T03:21:04;52;47;
55591;PMS5003;41454;53.396;-1.510;2023-09-18T03:23:32;51;44;
55591;PMS5003;41454;53.396;-1.510;2023-09-18T03:25:59;48;42;
55591;PMS5003;41454;53.396;-1.510;2023-09-18T03:28:27;47;43;
55591;PMS5003;41454;53.396;-1.510;2023-09-18T03:30:54;47;43;
55591;PMS5003;41454;53.396;-1.510;2023-09-18T03:33:21;42;39;
55591;PMS5003;41454;53.396;-1.510;2023-09-18T03:35:49;49;42;
55591;PMS5003;41454;53.396;-1.510;2023-09-18T03:38:18;45;39;
55591;PMS5003;41454;53.396;-1.510;2023-09-18T03:40:45;45;43;
55591;PMS5003;41454;53.396;-1.510;2023-09-18T03:43:12;37;35;
55591;PMS5003;41454;53.396;-1.510;2023-09-18T03:45:40;38;34;
55591;PMS5003;41454;53.396;-1.510;2023-09-18T03:48:07;34;32;
55591;PMS5003;41454;53.396;-1.510;2023-09-18T03:50:34;34;31;
55591;PMS5003;41454;53.396;-1.510;2023-09-18T03:53:02;29;29;
55591;PMS5003;41454;53.396;-1.510;2023-09-18T03:55:29;32;27;
55591;PMS5003;41454;53.396;-1.510;2023-09-18T03:57:56;36;31;
55591;PMS5003;41454;53.396;-1.510;2023-09-18T04:00:23;28;26;
55591;PMS5003;41454;53.396;-1.510;2023-09-18T04:02:51;34;26;
55591;PMS5003;41454;53.396;-1.510;2023-09-18T04:05:18;36;29;
55591;PMS5003;41454;53.396;-1.510;2023-09-18T04:07:45;26;26;
55591;PMS5003;41454;53.396;-1.510;2023-09-18T04:10:13;26;25;
55591;PMS5003;41454;53.396;-1.510;2023-09-18T04:12:40;25;22;
55591;PMS5003;41454;53.396;-1.510;2023-09-18T04:15:07;20;20;
55591;PMS5003;41454;53.396;-1.510;2023-09-18T04:17:35;30;27;
55591;PMS5003;41454;53.396;-1.510;2023-09-18T04:20:02;24;21;
55591;PMS5003;41454;53.396;-1.510;2023-09-18T04:22:29;26;26;
55591;PMS5003;41454;53.396;-1.510;2023-09-18T04:24:57;23;21;
55591;PMS5003;41454;53.396;-1.510;2023-09-18T04:27:23;22;21;
55591;PMS5003;41454;53.396;-1.510;2023-09-18T04:29:50;20;19;
55591;PMS5003;41454;53.396;-1.510;2023-09-18T04:32:18;26;26;
55591;PMS5003;41454;53.396;-1.510;2023-09-18T04:34:45;26;24;
55591;PMS5003;41454;53.396;-1.510;2023-09-18T04:37:13;28;24;
55591;PMS5003;41454;53.396;-1.510;2023-09-18T04:39:41;25;24;
55591;PMS5003;41454;53.396;-1.510;2023-09-18T04:42:08;23;23;
55591;PMS5003;41454;53.396;-1.510;2023-09-18T04:44:36;26;24;
55591;PMS5003;41454;53.396;-1.510;2023-09-18T04:47:03;28;24;
55591;PMS5003;41454;53.396;-1.510;2023-09-18T04:49:30;27;23;
55591;PMS5003;41454;53.396;-1.510;2023-09-18T04:51:57;30;25;
55591;PMS5003;41454;53.396;-1.510;2023-09-18T04:54:24;27;27;
55591;PMS5003;41454;53.396;-1.510;2023-09-18T04:56:52;34;30;
55591;PMS5003;41454;53.396;-1.510;2023-09-18T04:59:19;29;28;
55591;PMS5003;41454;53.396;-1.510;2023-09-18T05:01:46;24;24;
55591;PMS5003;41454;53.396;-1.510;2023-09-18T05:04:13;30;26;
55591;PMS5003;41454;53.396;-1.510;2023-09-18T05:06:40;27;26;
55591;PMS5003;41454;53.396;-1.510;2023-09-18T05:09:08;29;25;
55591;PMS5003;41454;53.396;-1.510;2023-09-18T05:11:42;29;26;
55591;PMS5003;41454;53.396;-1.510;2023-09-18T05:14:10;26;25;
55591;PMS5003;41454;53.396;-1.510;2023-09-18T05:16:37;27;25;
55591;PMS5003;41454;53.396;-1.510;2023-09-18T05:19:04;28;26;
55591;PMS5003;41454;53.396;-1.510;2023-09-18T05:21:31;26;24;
55591;PMS5003;41454;53.396;-1.510;2023-09-18T05:23:58;28;24;
55591;PMS5003;41454;53.396;-1.510;2023-09-18T05:26:25;21;20;
55591;PMS5003;41454;53.396;-1.510;2023-09-18T05:28:52;24;21;
55591;PMS5003;41454;53.396;-1.510;2023-09-18T05:31:19;29;28;
55591;PMS5003;41454;53.396;-1.510;2023-09-18T05:33:47;28;25;
55591;PMS5003;41454;53.396;-1.510;2023-09-18T05:36:13;30;28;
55591;PMS5003;41454;53.396;-1.510;2023-09-18T05:38:41;25;22;
55591;PMS5003;41454;53.396;-1.510;2023-09-18T05:41:08;27;23;
55591;PMS5003;41454;53.396;-1.510;2023-09-18T05:43:36;22;19;
55591;PMS5003;41454;53.396;-1.510;2023-09-18T05:46:03;20;20;
55591;PMS5003;41454;53.396;-1.510;2023-09-18T05:48:30;24;23;
55591;PMS5003;41454;53.396;-1.510;2023-09-18T05:50:57;19;18;
55591;PMS5003;41454;53.396;-1.510;2023-09-18T05:53:25;17;17;
55591;PMS5003;41454;53.396;-1.510;2023-09-18T05:55:52;20;19;
55591;PMS5003;41454;53.396;-1.510;2023-09-18T05:58:20;20;20;
55591;PMS5003;41454;53.396;-1.510;2023-09-18T06:00:48;21;18;
55591;PMS5003;41454;53.396;-1.510;2023-09-18T06:03:15;24;19;
55591;PMS5003;41454;53.396;-1.510;2023-09-18T06:05:42;24;19;
55591;PMS5003;41454;53.396;-1.510;2023-09-18T06:08:09;21;20;
55591;PMS5003;41454;53.396;-1.510;2023-09-18T06:10:36;18;15;
55591;PMS5003;41454;53.396;-1.510;2023-09-18T06:13:04;16;15;
55591;PMS5003;41454;53.396;-1.510;2023-09-18T06:15:31;11;11;
55591;PMS5003;41454;53.396;-1.510;2023-09-18T06:17:59;14;14;
55591;PMS5003;41454;53.396;-1.510;2023-09-18T06:20:37;9;9;
55591;PMS5003;41454;53.396;-1.510;2023-09-18T06:23:05;16;11;
55591;PMS5003;41454;53.396;-1.510;2023-09-18T06:25:32;11;9;
55591;PMS5003;41454;53.396;-1.510;2023-09-18T06:27:58;10;9;
55591;PMS5003;41454;53.396;-1.510;2023-09-18T06:30:25;11;9;
55591;PMS5003;41454;53.396;-1.510;2023-09-18T06:32:52;14;12;
55591;PMS5003;41454;53.396;-1.510;2023-09-18T06:35:19;7;7;
55591;PMS5003;41454;53.396;-1.510;2023-09-18T06:37:47;10;9;
55591;PMS5003;41454;53.396;-1.510;2023-09-18T06:40:14;10;9;
55591;PMS5003;41454;53.396;-1.510;2023-09-18T06:42:42;9;8;
55591;PMS5003;41454;53.396;-1.510;2023-09-18T06:45:09;10;10;
55591;PMS5003;41454;53.396;-1.510;2023-09-18T06:47:37;8;7;
55591;PMS5003;41454;53.396;-1.510;2023-09-18T06:50:05;7;7;
55591;PMS5003;41454;53.396;-1.510;2023-09-18T06:52:32;8;8;
55591;PMS5003;41454;53.396;-1.510;2023-09-18T06:54:59;5;5;
55591;PMS5003;41454;53.396;-1.510;2023-09-18T06:57:25;9;6;
55591;PMS5003;41454;53.396;-1.510;2023-09-18T06:59:52;8;8;
55591;PMS5003;41454;53.396;-1.510;2023-09-18T07:02:19;10;9;
55591;PMS5003;41454;53.396;-1.510;2023-09-18T07:04:47;8;8;
55591;PMS5003;41454;53.396;-1.510;2023-09-18T07:07:14;8;7;
55591;PMS5003;41454;53.396;-1.510;2023-09-18T07:09:42;6;6;
55591;PMS5003;41454;53.396;-1.510;2023-09-18T07:12:09;6;6;
55591;PMS5003;41454;53.396;-1.510;2023-09-18T07:14:37;5;5;
55591;PMS5003;41454;53.396;-1.510;2023-09-18T07:17:05;7;6;
55591;PMS5003;41454;53.396;-1.510;2023-09-18T07:19:32;8;7;
55591;PMS5003;41454;53.396;-1.510;2023-09-18T07:22:00;6;6;
55591;PMS5003;41454;53.396;-1.510;2023-09-18T07:24:27;8;8;
55591;PMS5003;41454;53.396;-1.510;2023-09-18T07:26:55;5;5;
55591;PMS5003;41454;53.396;-1.510;2023-09-18T07:29:22;8;8;
55591;PMS5003;41454;53.396;-1.510;2023-09-18T07:31:49;5;5;
55591;PMS5003;41454;53.396;-1.510;2023-09-18T07:34:17;9;9;
55591;PMS5003;41454;53.396;-1.510;2023-09-18T07:36:45;7;7;
55591;PMS5003;41454;53.396;-1.510;2023-09-18T07:39:12;9;9;
55591;PMS5003;41454;53.396;-1.510;2023-09-18T07:41:39;10;8;
55591;PMS5003;41454;53.396;-1.510;2023-09-18T07:44:07;12;11;
55591;PMS5003;41454;53.396;-1.510;2023-09-18T07:46:34;11;11;
55591;PMS5003;41454;53.396;-1.510;2023-09-18T07:49:01;10;10;
55591;PMS5003;41454;53.396;-1.510;2023-09-18T07:51:29;9;8;
55591;PMS5003;41454;53.396;-1.510;2023-09-18T07:53:56;11;11;
55591;PMS5003;41454;53.396;-1.510;2023-09-18T07:56:23;9;8;
55591;PMS5003;41454;53.396;-1.510;2023-09-18T07:58:49;12;10;
55591;PMS5003;41454;53.396;-1.510;2023-09-18T08:01:16;10;8;
55591;PMS5003;41454;53.396;-1.510;2023-09-18T08:03:44;6;6;
55591;PMS5003;41454;53.396;-1.510;2023-09-18T08:06:11;7;7;
55591;PMS5003;41454;53.396;-1.510;2023-09-18T08:08:38;10;8;
55591;PMS5003;41454;53.396;-1.510;2023-09-18T08:11:07;8;7;
55591;PMS5003;41454;53.396;-1.510;2023-09-18T08:13:35;7;6;
55591;PMS5003;41454;53.396;-1.510;2023-09-18T08:16:05;8;8;
55591;PMS5003;41454;53.396;-1.510;2023-09-18T08:18:33;7;6;
55591;PMS5003;41454;53.396;-1.510;2023-09-18T08:21:00;10;8;
55591;PMS5003;41454;53.396;-1.510;2023-09-18T08:23:28;7;7;
55591;PMS5003;41454;53.396;-1.510;2023-09-18T08:25:55;11;10;
55591;PMS5003;41454;53.396;-1.510;2023-09-18T08:28:23;11;8;
55591;PMS5003;41454;53.396;-1.510;2023-09-18T08:30:49;7;7;
55591;PMS5003;41454;53.396;-1.510;2023-09-18T08:33:16;6;5;
55591;PMS5003;41454;53.396;-1.510;2023-09-18T08:35:43;10;7;
55591;PMS5003;41454;53.396;-1.510;2023-09-18T08:38:11;11;8;
55591;PMS5003;41454;53.396;-1.510;2023-09-18T08:40:39;7;7;
55591;PMS5003;41454;53.396;-1.510;2023-09-18T08:43:07;10;9;
55591;PMS5003;41454;53.396;-1.510;2023-09-18T08:45:38;8;8;
55591;PMS5003;41454;53.396;-1.510;2023-09-18T08:48:12;7;6;
55591;PMS5003;41454;53.396;-1.510;2023-09-18T08:50:40;8;6;
55591;PMS5003;41454;53.396;-1.510;2023-09-18T08:53:08;8;7;
55591;PMS5003;41454;53.396;-1.510;2023-09-18T08:55:35;4;4;
55591;PMS5003;41454;53.396;-1.510;2023-09-18T08:58:03;5;5;
55591;PMS5003;41454;53.396;-1.510;2023-09-18T09:00:33;5;5;
55591;PMS5003;41454;53.396;-1.510;2023-09-18T09:03:03;6;4;
55591;PMS5003;41454;53.396;-1.510;2023-09-18T09:05:30;4;4;
55591;PMS5003;41454;53.396;-1.510;2023-09-18T09:07:58;6;5;
55591;PMS5003;41454;53.396;-1.510;2023-09-18T09:10:25;4;3;
55591;PMS5003;41454;53.396;-1.510;2023-09-18T09:12:53;6;4;
55591;PMS5003;41454;53.396;-1.510;2023-09-18T09:15:22;4;4;
55591;PMS5003;41454;53.396;-1.510;2023-09-18T09:17:51;5;4;
55591;PMS5003;41454;53.396;-1.510;2023-09-18T09:20:27;4;4;
55591;PMS5003;41454;53.396;-1.510;2023-09-18T09:22:59;5;4;
55591;PMS5003;41454;53.396;-1.510;2023-09-18T09:25:27;5;4;
55591;PMS5003;41454;53.396;-1.510;2023-09-18T09:27:55;3;3;
55591;PMS5003;41454;53.396;-1.510;2023-09-18T09:30:23;5;4;
55591;PMS5003;41454;53.396;-1.510;2023-09-18T09:32:51;8;6;
55591;PMS5003;41454;53.396;-1.510;2023-09-18T09:35:21;3;3;
55591;PMS5003;41454;53.396;-1.510;2023-09-18T09:37:49;3;3;
55591;PMS5003;41454;53.396;-1.510;2023-09-18T09:40:19;4;3;
55591;PMS5003;41454;53.396;-1.510;2023-09-18T09:42:47;4;4;
55591;PMS5003;41454;53.396;-1.510;2023-09-18T09:45:17;5;5;
55591;PMS5003;41454;53.396;-1.510;2023-09-18T09:47:44;3;3;
55591;PMS5003;41454;53.396;-1.510;2023-09-18T09:50:13;4;4;
55591;PMS5003;41454;53.396;-1.510;2023-09-18T09:52:42;5;4;
55591;PMS5003;41454;53.396;-1.510;2023-09-18T09:55:18;5;5;
55591;PMS5003;41454;53.396;-1.510;2023-09-18T09:57:47;6;5;
55591;PMS5003;41454;53.396;-1.510;2023-09-18T10:00:15;5;4;
55591;PMS5003;41454;53.396;-1.510;2023-09-18T10:02:42;5;5;
55591;PMS5003;41454;53.396;-1.510;2023-09-18T10:05:09;6;5;
55591;PMS5003;41454;53.396;-1.510;2023-09-18T10:07:37;8;6;
55591;PMS5003;41454;53.396;-1.510;2023-09-18T10:10:05;4;4;
55591;PMS5003;41454;53.396;-1.510;2023-09-18T10:12:33;7;6;
55591;PMS5003;41454;53.396;-1.510;2023-09-18T10:15:02;4;4;
55591;PMS5003;41454;53.396;-1.510;2023-09-18T10:17:30;6;5;
55591;PMS5003;41454;53.396;-1.510;2023-09-18T10:20:00;6;4;
55591;PMS5003;41454;53.396;-1.510;2023-09-18T10:22:37;3;3;
55591;PMS5003;41454;53.396;-1.510;2023-09-18T10:25:08;3;3;
55591;PMS5003;41454;53.396;-1.510;2023-09-18T10:27:37;4;4;
55591;PMS5003;41454;53.396;-1.510;2023-09-18T10:30:07;3;3;
55591;PMS5003;41454;53.396;-1.510;2023-09-18T10:32:37;4;3;
55591;PMS5003;41454;53.396;-1.510;2023-09-18T10:35:07;5;4;
55591;PMS5003;41454;53.396;-1.510;2023-09-18T10:37:34;4;4;
55591;PMS5003;41454;53.396;-1.510;2023-09-18T10:40:03;3;3;
55591;PMS5003;41454;53.396;-1.510;2023-09-18T10:42:34;3;3;
55591;PMS5003;41454;53.396;-1.510;2023-09-18T10:45:03;4;3;
55591;PMS5003;41454;53.396;-1.510;2023-09-18T10:47:31;1;1;
55591;PMS5003;41454;53.396;-1.510;2023-09-18T10:50:00;3;3;
55591;PMS5003;41454;53.396;-1.510;2023-09-18T10:52:27;2;2;
55591;PMS5003;41454;53.396;-1.510;2023-09-18T10:54:55;1;1;
55591;PMS5003;41454;53.396;-1.510;2023-09-18T10:57:23;1;1;
55591;PMS5003;41454;53.396;-1.510;2023-09-18T10:59:50;3;3;
55591;PMS5003;41454;53.396;-1.510;2023-09-18T11:02:21;3;3;
55591;PMS5003;41454;53.396;-1.510;2023-09-18T11:04:48;4;3;
55591;PMS5003;41454;53.396;-1.510;2023-09-18T11:07:20;2;2;
55591;PMS5003;41454;53.396;-1.510;2023-09-18T11:09:48;2;2;
55591;PMS5003;41454;53.396;-1.510;2023-09-18T11:12:16;4;4;
55591;PMS5003;41454;53.396;-1.510;2023-09-18T11:14:44;0;0;
55591;PMS5003;41454;53.396;-1.510;2023-09-18T11:17:30;1;1;
55591;PMS5003;41454;53.396;-1.510;2023-09-18T11:20:03;2;1;
55591;PMS5003;41454;53.396;-1.510;2023-09-18T11:22:31;1;1;
55591;PMS5003;41454;53.396;-1.510;2023-09-18T11:25:28;2;2;
55591;PMS5003;41454;53.396;-1.510;2023-09-18T11:27:57;1;1;
55591;PMS5003;41454;53.396;-1.510;2023-09-18T11:30:24;3;3;
55591;PMS5003;41454;53.396;-1.510;2023-09-18T11:32:52;3;3;
55591;PMS5003;41454;53.396;-1.510;2023-09-18T11:35:21;4;3;
55591;PMS5003;41454;53.396;-1.510;2023-09-18T11:37:50;4;4;
55591;PMS5003;41454;53.396;-1.510;2023-09-18T11:40:30;2;2;
55591;PMS5003;41454;53.396;-1.510;2023-09-18T11:43:31;1;1;
55591;PMS5003;41454;53.396;-1.510;2023-09-18T11:45:58;1;1;
55591;PMS5003;41454;53.396;-1.510;2023-09-18T11:48:27;2;2;
55591;PMS5003;41454;53.396;-1.510;2023-09-18T11:50:56;2;2;
55591;PMS5003;41454;53.396;-1.510;2023-09-18T11:53:24;2;2;
55591;PMS5003;41454;53.396;-1.510;2023-09-18T11:55:53;0;0;
55591;PMS5003;41454;53.396;-1.510;2023-09-18T11:58:21;2;1;
55591;PMS5003;41454;53.396;-1.510;2023-09-18T12:00:49;4;2;
55591;PMS5003;41454;53.396;-1.510;2023-09-18T12:03:17;1;1;
55591;PMS5003;41454;53.396;-1.510;2023-09-18T12:05:45;3;3;
55591;PMS5003;41454;53.396;-1.510;2023-09-18T12:08:12;3;2;
55591;PMS5003;41454;53.396;-1.510;2023-09-18T12:10:40;1;1;
55591;PMS5003;41454;53.396;-1.510;2023-09-18T12:13:08;4;2;
55591;PMS5003;41454;53.396;-1.510;2023-09-18T12:15:35;3;3;
55591;PMS5003;41454;53.396;-1.510;2023-09-18T12:18:05;3;3;
55591;PMS5003;41454;53.396;-1.510;2023-09-18T12:20:33;1;1;
55591;PMS5003;41454;53.396;-1.510;2023-09-18T12:23:00;2;2;
55591;PMS5003;41454;53.396;-1.510;2023-09-18T12:25:28;2;2;
55591;PMS5003;41454;53.396;-1.510;2023-09-18T12:27:55;3;3;
55591;PMS5003;41454;53.396;-1.510;2023-09-18T12:30:22;3;3;
55591;PMS5003;41454;53.396;-1.510;2023-09-18T12:32:50;3;3;
55591;PMS5003;41454;53.396;-1.510;2023-09-18T12:35:18;3;3;
55591;PMS5003;41454;53.396;-1.510;2023-09-18T12:37:46;2;2;
55591;PMS5003;41454;53.396;-1.510;2023-09-18T12:40:21;3;3;
55591;PMS5003;41454;53.396;-1.510;2023-09-18T12:42:50;2;1;
55591;PMS5003;41454;53.396;-1.510;2023-09-18T12:45:18;5;3;
55591;PMS5003;41454;53.396;-1.510;2023-09-18T12:47:45;2;1;
55591;PMS5003;41454;53.396;-1.510;2023-09-18T12:50:13;3;3;
55591;PMS5003;41454;53.396;-1.510;2023-09-18T12:52:39;3;3;
55591;PMS5003;41454;53.396;-1.510;2023-09-18T12:55:07;2;2;
55591;PMS5003;41454;53.396;-1.510;2023-09-18T12:57:34;3;3;
55591;PMS5003;41454;53.396;-1.510;2023-09-18T13:00:10;4;3;
55591;PMS5003;41454;53.396;-1.510;2023-09-18T13:02:38;2;2;
55591;PMS5003;41454;53.396;-1.510;2023-09-18T13:05:06;2;2;
55591;PMS5003;41454;53.396;-1.510;2023-09-18T13:07:38;1;1;
55591;PMS5003;41454;53.396;-1.510;2023-09-18T13:10:10;2;2;
55591;PMS5003;41454;53.396;-1.510;2023-09-18T13:12:39;2;2;
55591;PMS5003;41454;53.396;-1.510;2023-09-18T13:15:07;2;2;
55591;PMS5003;41454;53.396;-1.510;2023-09-18T13:17:38;2;2;
55591;PMS5003;41454;53.396;-1.510;2023-09-18T13:20:09;2;2;
55591;PMS5003;41454;53.396;-1.510;2023-09-18T13:22:38;0;0;
55591;PMS5003;41454;53.396;-1.510;2023-09-18T13:25:06;0;0;
55591;PMS5003;41454;53.396;-1.510;2023-09-18T13:27:35;1;0;
55591;PMS5003;41454;53.396;-1.510;2023-09-18T13:30:03;0;0;
55591;PMS5003;41454;53.396;-1.510;2023-09-18T13:32:32;0;0;
55591;PMS5003;41454;53.396;-1.510;2023-09-18T13:35:01;0;0;
55591;PMS5003;41454;53.396;-1.510;2023-09-18T13:37:28;0;0;
55591;PMS5003;41454;53.396;-1.510;2023-09-18T13:39:56;0;0;
55591;PMS5003;41454;53.396;-1.510;2023-09-18T13:42:23;1;1;
55591;PMS5003;41454;53.396;-1.510;2023-09-18T13:44:50;0;0;
55591;PMS5003;41454;53.396;-1.510;2023-09-18T13:47:17;0;0;
55591;PMS5003;41454;53.396;-1.510;2023-09-18T13:49:45;1;1;
55591;PMS5003;41454;53.396;-1.510;2023-09-18T13:52:13;2;0;
55591;PMS5003;41454;53.396;-1.510;2023-09-18T13:54:40;3;3;
55591;PMS5003;41454;53.396;-1.510;2023-09-18T13:57:06;1;1;
55591;PMS5003;41454;53.396;-1.510;2023-09-18T13:59:34;1;1;
55591;PMS5003;41454;53.396;-1.510;2023-09-18T14:02:01;1;1;
55591;PMS5003;41454;53.396;-1.510;2023-09-18T14:04:29;1;1;
55591;PMS5003;41454;53.396;-1.510;2023-09-18T14:06:56;2;2;
55591;PMS5003;41454;53.396;-1.510;2023-09-18T14:09:23;3;2;
55591;PMS5003;41454;53.396;-1.510;2023-09-18T14:11:51;3;3;
55591;PMS5003;41454;53.396;-1.510;2023-09-18T14:14:18;0;0;
55591;PMS5003;41454;53.396;-1.510;2023-09-18T14:16:46;3;3;
55591;PMS5003;41454;53.396;-1.510;2023-09-18T14:19:13;2;2;
55591;PMS5003;41454;53.396;-1.510;2023-09-18T14:21:41;4;3;
55591;PMS5003;41454;53.396;-1.510;2023-09-18T14:24:08;1;1;
55591;PMS5003;41454;53.396;-1.510;2023-09-18T14:26:36;2;2;
55591;PMS5003;41454;53.396;-1.510;2023-09-18T14:29:03;1;1;
55591;PMS5003;41454;53.396;-1.510;2023-09-18T14:31:31;3;2;
55591;PMS5003;41454;53.396;-1.510;2023-09-18T14:33:58;3;3;
55591;PMS5003;41454;53.396;-1.510;2023-09-18T14:36:25;1;1;
55591;PMS5003;41454;53.396;-1.510;2023-09-18T14:38:52;2;2;
55591;PMS5003;41454;53.396;-1.510;2023-09-18T14:41:19;2;2;
55591;PMS5003;41454;53.396;-1.510;2023-09-18T14:43:47;4;2;
55591;PMS5003;41454;53.396;-1.510;2023-09-18T14:46:14;3;3;
55591;PMS5003;41454;53.396;-1.510;2023-09-18T14:48:42;1;1;
55591;PMS5003;41454;53.396;-1.510;2023-09-18T14:51:09;2;2;
55591;PMS5003;41454;53.396;-1.510;2023-09-18T14:53:36;2;1;
55591;PMS5003;41454;53.396;-1.510;2023-09-18T14:56:04;1;1;
55591;PMS5003;41454;53.396;-1.510;2023-09-18T14:58:31;1;1;
55591;PMS5003;41454;53.396;-1.510;2023-09-18T15:00:59;3;3;
55591;PMS5003;41454;53.396;-1.510;2023-09-18T15:03:26;1;1;
55591;PMS5003;41454;53.396;-1.510;2023-09-18T15:05:53;1;1;
55591;PMS5003;41454;53.396;-1.510;2023-09-18T15:08:21;2;2;
55591;PMS5003;41454;53.396;-1.510;2023-09-18T15:10:48;2;2;
55591;PMS5003;41454;53.396;-1.510;2023-09-18T15:13:15;2;2;
55591;PMS5003;41454;53.396;-1.510;2023-09-18T15:15:43;2;2;
55591;PMS5003;41454;53.396;-1.510;2023-09-18T15:18:10;1;1;
55591;PMS5003;41454;53.396;-1.510;2023-09-18T15:20:38;2;2;
55591;PMS5003;41454;53.396;-1.510;2023-09-18T15:23:05;3;3;
55591;PMS5003;41454;53.396;-1.510;2023-09-18T15:25:33;2;2;
55591;PMS5003;41454;53.396;-1.510;2023-09-18T15:28:00;2;2;
55591;PMS5003;41454;53.396;-1.510;2023-09-18T15:30:28;4;3;
55591;PMS5003;41454;53.396;-1.510;2023-09-18T15:32:55;2;2;
55591;PMS5003;41454;53.396;-1.510;2023-09-18T15:35:23;3;2;
55591;PMS5003;41454;53.396;-1.510;2023-09-18T15:37:53;2;1;
55591;PMS5003;41454;53.396;-1.510;2023-09-18T15:40:21;1;1;
55591;PMS5003;41454;53.396;-1.510;2023-09-18T15:42:49;2;2;
55591;PMS5003;41454;53.396;-1.510;2023-09-18T15:45:15;1;1;
55591;PMS5003;41454;53.396;-1.510;2023-09-18T15:47:43;2;2;
55591;PMS5003;41454;53.396;-1.510;2023-09-18T15:50:12;1;1;
55591;PMS5003;41454;53.396;-1.510;2023-09-18T15:52:39;3;3;
55591;PMS5003;41454;53.396;-1.510;2023-09-18T15:55:07;3;2;
55591;PMS5003;41454;53.396;-1.510;2023-09-18T15:57:35;2;2;
55591;PMS5003;41454;53.396;-1.510;2023-09-18T16:00:04;1;1;
55591;PMS5003;41454;53.396;-1.510;2023-09-18T16:02:33;2;2;
55591;PMS5003;41454;53.396;-1.510;2023-09-18T16:05:02;1;1;
55591;PMS5003;41454;53.396;-1.510;2023-09-18T16:07:29;0;0;
55591;PMS5003;41454;53.396;-1.510;2023-09-18T16:09:56;2;2;
55591;PMS5003;41454;53.396;-1.510;2023-09-18T16:12:23;1;1;
55591;PMS5003;41454;53.396;-1.510;2023-09-18T16:14:56;2;2;
55591;PMS5003;41454;53.396;-1.510;2023-09-18T16:17:23;1;1;
55591;PMS5003;41454;53.396;-1.510;2023-09-18T16:19:50;2;2;
55591;PMS5003;41454;53.396;-1.510;2023-09-18T16:22:17;2;2;
55591;PMS5003;41454;53.396;-1.510;2023-09-18T16:24:44;3;1;
55591;PMS5003;41454;53.396;-1.510;2023-09-18T16:27:12;0;0;